sensor_id;sensor_type;location;lat;lon;timestamp;P1;durP1;ratioP1;P2;durP2;ratioP2
61960;SDS011;47923;42.506;24.192;2023-12-04T00:01:35;15.15;;;8.98;;
61960;SDS011;47923;42.506;24.192;2023-12-04T00:04:01;16.27;;;9.35;;
61960;SDS011;47923;42.506;24.192;2023-12-04T00:06:26;15.55;;;9.18;;
61960;SDS011;47923;42.506;24.192;2023-12-04T00:08:52;15.10;;;9.45;;
61960;SDS011;47923;42.506;24.192;2023-12-04T00:11:17;16.65;;;10.07;;
61960;SDS011;47923;42.506;24.192;2023-12-04T00:13:43;15.45;;;9.38;;
61960;SDS011;47923;42.506;24.192;2023-12-04T00:16:08;18.45;;;9.38;;
61960;SDS011;47923;42.506;24.192;2023-12-04T00:18:34;15.23;;;9.80;;
61960;SDS011;47923;42.506;24.192;2023-12-04T00:20:59;16.85;;;10.23;;
61960;SDS011;47923;42.506;24.192;2023-12-04T00:23:25;15.80;;;9.82;;
61960;SDS011;47923;42.506;24.192;2023-12-04T00:25:50;15.02;;;9.70;;
61960;SDS011;47923;42.506;24.192;2023-12-04T00:28:15;16.00;;;9.43;;
61960;SDS011;47923;42.506;24.192;2023-12-04T00:30:41;18.75;;;9.95;;
61960;SDS011;47923;42.506;24.192;2023-12-04T00:33:06;18.80;;;10.63;;
61960;SDS011;47923;42.506;24.192;2023-12-04T00:35:32;18.00;;;9.48;;
61960;SDS011;47923;42.506;24.192;2023-12-04T00:37:57;20.02;;;11.13;;
61960;SDS011;47923;42.506;24.192;2023-12-04T00:40:23;17.30;;;10.60;;
61960;SDS011;47923;42.506;24.192;2023-12-04T00:42:48;18.67;;;11.25;;
61960;SDS011;47923;42.506;24.192;2023-12-04T00:45:14;20.52;;;11.50;;
61960;SDS011;47923;42.506;24.192;2023-12-04T00:47:39;29.00;;;17.00;;
61960;SDS011;47923;42.506;24.192;2023-12-04T00:50:05;23.05;;;13.63;;
61960;SDS011;47923;42.506;24.192;2023-12-04T00:52:30;20.95;;;12.30;;
61960;SDS011;47923;42.506;24.192;2023-12-04T00:54:56;18.90;;;10.85;;
61960;SDS011;47923;42.506;24.192;2023-12-04T00:57:21;18.70;;;11.15;;
61960;SDS011;47923;42.506;24.192;2023-12-04T00:59:47;19.85;;;10.88;;
61960;SDS011;47923;42.506;24.192;2023-12-04T01:02:12;20.98;;;11.82;;
61960;SDS011;47923;42.506;24.192;2023-12-04T01:04:40;22.45;;;11.88;;
61960;SDS011;47923;42.506;24.192;2023-12-04T01:07:09;20.00;;;12.05;;
61960;SDS011;47923;42.506;24.192;2023-12-04T01:09:35;16.90;;;10.60;;
61960;SDS011;47923;42.506;24.192;2023-12-04T01:12:00;18.63;;;10.98;;
61960;SDS011;47923;42.506;24.192;2023-12-04T01:14:26;18.85;;;11.57;;
61960;SDS011;47923;42.506;24.192;2023-12-04T01:16:51;18.65;;;11.23;;
61960;SDS011;47923;42.506;24.192;2023-12-04T01:19:17;21.35;;;11.60;;
61960;SDS011;47923;42.506;24.192;2023-12-04T01:21:42;19.38;;;11.52;;
61960;SDS011;47923;42.506;24.192;2023-12-04T01:24:08;18.55;;;11.23;;
61960;SDS011;47923;42.506;24.192;2023-12-04T01:26:33;20.90;;;12.13;;
61960;SDS011;47923;42.506;24.192;2023-12-04T01:28:59;19.13;;;11.43;;
61960;SDS011;47923;42.506;24.192;2023-12-04T01:31:24;21.38;;;11.82;;
61960;SDS011;47923;42.506;24.192;2023-12-04T01:33:50;19.13;;;11.95;;
61960;SDS011;47923;42.506;24.192;2023-12-04T01:36:15;17.45;;;11.32;;
61960;SDS011;47923;42.506;24.192;2023-12-04T01:38:40;20.65;;;11.75;;
61960;SDS011;47923;42.506;24.192;2023-12-04T01:41:06;18.50;;;11.98;;
61960;SDS011;47923;42.506;24.192;2023-12-04T01:43:31;20.50;;;11.82;;
61960;SDS011;47923;42.506;24.192;2023-12-04T01:45:57;18.63;;;11.50;;
61960;SDS011;47923;42.506;24.192;2023-12-04T01:48:25;19.20;;;10.23;;
61960;SDS011;47923;42.506;24.192;2023-12-04T01:50:52;20.65;;;11.70;;
61960;SDS011;47923;42.506;24.192;2023-12-04T01:53:18;20.35;;;11.27;;
61960;SDS011;47923;42.506;24.192;2023-12-04T01:55:44;20.80;;;11.90;;
61960;SDS011;47923;42.506;24.192;2023-12-04T01:58:10;20.63;;;11.35;;
61960;SDS011;47923;42.506;24.192;2023-12-04T02:00:37;19.33;;;12.05;;
61960;SDS011;47923;42.506;24.192;2023-12-04T02:03:02;20.52;;;11.73;;
61960;SDS011;47923;42.506;24.192;2023-12-04T02:05:28;19.27;;;11.57;;
61960;SDS011;47923;42.506;24.192;2023-12-04T02:07:54;20.55;;;11.88;;
61960;SDS011;47923;42.506;24.192;2023-12-04T02:10:20;21.00;;;11.82;;
61960;SDS011;47923;42.506;24.192;2023-12-04T02:12:46;19.77;;;11.38;;
61960;SDS011;47923;42.506;24.192;2023-12-04T02:15:11;22.95;;;12.25;;
61960;SDS011;47923;42.506;24.192;2023-12-04T02:17:38;23.15;;;12.25;;
61960;SDS011;47923;42.506;24.192;2023-12-04T02:20:04;18.73;;;11.52;;
61960;SDS011;47923;42.506;24.192;2023-12-04T02:22:30;22.02;;;12.10;;
61960;SDS011;47923;42.506;24.192;2023-12-04T02:24:56;21.95;;;12.85;;
61960;SDS011;47923;42.506;24.192;2023-12-04T02:27:35;19.50;;;12.80;;
61960;SDS011;47923;42.506;24.192;2023-12-04T02:30:05;19.95;;;11.90;;
61960;SDS011;47923;42.506;24.192;2023-12-04T02:32:38;19.35;;;11.77;;
61960;SDS011;47923;42.506;24.192;2023-12-04T02:35:09;20.80;;;12.75;;
61960;SDS011;47923;42.506;24.192;2023-12-04T02:37:36;19.67;;;12.60;;
61960;SDS011;47923;42.506;24.192;2023-12-04T02:40:02;20.88;;;12.55;;
61960;SDS011;47923;42.506;24.192;2023-12-04T02:42:28;22.25;;;13.73;;
61960;SDS011;47923;42.506;24.192;2023-12-04T02:44:54;21.17;;;13.02;;
61960;SDS011;47923;42.506;24.192;2023-12-04T02:47:19;23.20;;;12.50;;
61960;SDS011;47923;42.506;24.192;2023-12-04T02:49:45;22.70;;;12.40;;
61960;SDS011;47923;42.506;24.192;2023-12-04T02:52:10;20.50;;;12.18;;
61960;SDS011;47923;42.506;24.192;2023-12-04T02:54:36;21.65;;;12.55;;
61960;SDS011;47923;42.506;24.192;2023-12-04T02:57:01;21.65;;;13.27;;
61960;SDS011;47923;42.506;24.192;2023-12-04T02:59:27;22.17;;;13.88;;
61960;SDS011;47923;42.506;24.192;2023-12-04T03:01:52;59.70;;;15.35;;
61960;SDS011;47923;42.506;24.192;2023-12-04T03:04:19;21.83;;;12.88;;
61960;SDS011;47923;42.506;24.192;2023-12-04T03:06:45;21.13;;;13.15;;
61960;SDS011;47923;42.506;24.192;2023-12-04T03:09:10;23.08;;;13.13;;
61960;SDS011;47923;42.506;24.192;2023-12-04T03:11:39;23.05;;;13.35;;
61960;SDS011;47923;42.506;24.192;2023-12-04T03:14:05;21.83;;;12.45;;
61960;SDS011;47923;42.506;24.192;2023-12-04T03:16:30;21.52;;;13.25;;
61960;SDS011;47923;42.506;24.192;2023-12-04T03:18:56;22.80;;;13.35;;
61960;SDS011;47923;42.506;24.192;2023-12-04T03:21:21;22.35;;;12.98;;
61960;SDS011;47923;42.506;24.192;2023-12-04T03:23:47;21.48;;;12.32;;
61960;SDS011;47923;42.506;24.192;2023-12-04T03:26:12;21.48;;;12.60;;
61960;SDS011;47923;42.506;24.192;2023-12-04T03:28:38;20.95;;;12.60;;
61960;SDS011;47923;42.506;24.192;2023-12-04T03:31:05;23.75;;;12.82;;
61960;SDS011;47923;42.506;24.192;2023-12-04T03:33:30;20.65;;;12.98;;
61960;SDS011;47923;42.506;24.192;2023-12-04T03:35:56;20.38;;;12.68;;
61960;SDS011;47923;42.506;24.192;2023-12-04T03:38:21;20.95;;;12.40;;
61960;SDS011;47923;42.506;24.192;2023-12-04T03:40:47;22.38;;;13.65;;
61960;SDS011;47923;42.506;24.192;2023-12-04T03:43:12;21.10;;;13.73;;
61960;SDS011;47923;42.506;24.192;2023-12-04T03:45:38;21.88;;;14.75;;
61960;SDS011;47923;42.506;24.192;2023-12-04T03:48:04;23.35;;;16.17;;
61960;SDS011;47923;42.506;24.192;2023-12-04T03:50:30;21.58;;;14.95;;
61960;SDS011;47923;42.506;24.192;2023-12-04T03:52:55;23.55;;;15.90;;
61960;SDS011;47923;42.506;24.192;2023-12-04T03:55:20;21.90;;;16.00;;
61960;SDS011;47923;42.506;24.192;2023-12-04T03:57:47;23.35;;;15.85;;
61960;SDS011;47923;42.506;24.192;2023-12-04T04:00:12;21.90;;;15.95;;
61960;SDS011;47923;42.506;24.192;2023-12-04T04:02:42;21.27;;;15.05;;
61960;SDS011;47923;42.506;24.192;2023-12-04T04:05:08;21.92;;;15.88;;
61960;SDS011;47923;42.506;24.192;2023-12-04T04:07:34;24.08;;;16.23;;
61960;SDS011;47923;42.506;24.192;2023-12-04T04:09:59;23.25;;;15.65;;
61960;SDS011;47923;42.506;24.192;2023-12-04T04:12:26;24.20;;;16.27;;
61960;SDS011;47923;42.506;24.192;2023-12-04T04:14:52;22.50;;;16.67;;
61960;SDS011;47923;42.506;24.192;2023-12-04T04:17:17;22.33;;;15.82;;
61960;SDS011;47923;42.506;24.192;2023-12-04T04:19:43;22.10;;;14.20;;
61960;SDS011;47923;42.506;24.192;2023-12-04T04:22:09;21.92;;;15.13;;
61960;SDS011;47923;42.506;24.192;2023-12-04T04:24:34;19.75;;;14.57;;
61960;SDS011;47923;42.506;24.192;2023-12-04T04:26:59;20.48;;;13.88;;
61960;SDS011;47923;42.506;24.192;2023-12-04T04:29:25;24.75;;;15.02;;
61960;SDS011;47923;42.506;24.192;2023-12-04T04:31:50;20.98;;;15.70;;
61960;SDS011;47923;42.506;24.192;2023-12-04T04:34:16;23.75;;;17.73;;
61960;SDS011;47923;42.506;24.192;2023-12-04T04:36:42;25.65;;;16.92;;
61960;SDS011;47923;42.506;24.192;2023-12-04T04:39:09;24.23;;;16.63;;
61960;SDS011;47923;42.506;24.192;2023-12-04T04:41:35;21.27;;;15.63;;
61960;SDS011;47923;42.506;24.192;2023-12-04T04:44:01;22.75;;;16.35;;
61960;SDS011;47923;42.506;24.192;2023-12-04T04:46:27;24.77;;;16.60;;
61960;SDS011;47923;42.506;24.192;2023-12-04T04:48:53;24.38;;;16.58;;
61960;SDS011;47923;42.506;24.192;2023-12-04T04:51:19;24.25;;;16.33;;
61960;SDS011;47923;42.506;24.192;2023-12-04T04:53:44;22.98;;;15.40;;
61960;SDS011;47923;42.506;24.192;2023-12-04T04:56:10;24.42;;;16.85;;
61960;SDS011;47923;42.506;24.192;2023-12-04T04:58:36;23.05;;;15.57;;
61960;SDS011;47923;42.506;24.192;2023-12-04T05:01:01;22.23;;;15.30;;
61960;SDS011;47923;42.506;24.192;2023-12-04T05:03:27;22.52;;;14.80;;
61960;SDS011;47923;42.506;24.192;2023-12-04T05:05:52;22.13;;;15.23;;
61960;SDS011;47923;42.506;24.192;2023-12-04T05:08:18;21.17;;;14.88;;
61960;SDS011;47923;42.506;24.192;2023-12-04T05:10:43;26.13;;;14.57;;
61960;SDS011;47923;42.506;24.192;2023-12-04T05:13:09;26.10;;;17.83;;
61960;SDS011;47923;42.506;24.192;2023-12-04T05:15:34;25.00;;;16.15;;
61960;SDS011;47923;42.506;24.192;2023-12-04T05:17:59;22.73;;;15.50;;
61960;SDS011;47923;42.506;24.192;2023-12-04T05:20:25;24.40;;;16.55;;
61960;SDS011;47923;42.506;24.192;2023-12-04T05:22:51;24.48;;;16.67;;
61960;SDS011;47923;42.506;24.192;2023-12-04T05:25:17;25.30;;;16.55;;
61960;SDS011;47923;42.506;24.192;2023-12-04T05:27:42;24.85;;;15.18;;
61960;SDS011;47923;42.506;24.192;2023-12-04T05:30:08;24.42;;;15.65;;
61960;SDS011;47923;42.506;24.192;2023-12-04T05:32:34;21.65;;;15.18;;
61960;SDS011;47923;42.506;24.192;2023-12-04T05:34:59;23.45;;;13.82;;
61960;SDS011;47923;42.506;24.192;2023-12-04T05:37:24;24.00;;;15.68;;
61960;SDS011;47923;42.506;24.192;2023-12-04T05:39:50;23.60;;;15.27;;
61960;SDS011;47923;42.506;24.192;2023-12-04T05:42:15;22.65;;;15.05;;
61960;SDS011;47923;42.506;24.192;2023-12-04T05:44:41;24.20;;;15.27;;
61960;SDS011;47923;42.506;24.192;2023-12-04T05:47:06;22.73;;;14.50;;
61960;SDS011;47923;42.506;24.192;2023-12-04T05:49:33;30.85;;;22.27;;
61960;SDS011;47923;42.506;24.192;2023-12-04T05:51:58;25.60;;;15.90;;
61960;SDS011;47923;42.506;24.192;2023-12-04T05:54:24;32.15;;;19.92;;
61960;SDS011;47923;42.506;24.192;2023-12-04T05:56:50;53.03;;;28.83;;
61960;SDS011;47923;42.506;24.192;2023-12-04T05:59:15;48.92;;;29.73;;
61960;SDS011;47923;42.506;24.192;2023-12-04T06:01:40;38.63;;;20.33;;
61960;SDS011;47923;42.506;24.192;2023-12-04T06:04:06;36.22;;;21.13;;
61960;SDS011;47923;42.506;24.192;2023-12-04T06:06:31;33.25;;;20.15;;
61960;SDS011;47923;42.506;24.192;2023-12-04T06:08:57;26.42;;;15.50;;
61960;SDS011;47923;42.506;24.192;2023-12-04T06:11:22;26.17;;;13.63;;
61960;SDS011;47923;42.506;24.192;2023-12-04T06:13:48;22.45;;;12.48;;
61960;SDS011;47923;42.506;24.192;2023-12-04T06:16:13;20.88;;;12.27;;
61960;SDS011;47923;42.506;24.192;2023-12-04T06:18:39;24.80;;;13.93;;
61960;SDS011;47923;42.506;24.192;2023-12-04T06:21:04;23.85;;;13.85;;
61960;SDS011;47923;42.506;24.192;2023-12-04T06:23:31;39.70;;;13.30;;
61960;SDS011;47923;42.506;24.192;2023-12-04T06:25:57;19.38;;;11.13;;
61960;SDS011;47923;42.506;24.192;2023-12-04T06:28:22;22.02;;;14.98;;
61960;SDS011;47923;42.506;24.192;2023-12-04T06:30:48;26.77;;;17.40;;
61960;SDS011;47923;42.506;24.192;2023-12-04T06:33:14;23.92;;;14.45;;
61960;SDS011;47923;42.506;24.192;2023-12-04T06:35:40;21.75;;;13.93;;
61960;SDS011;47923;42.506;24.192;2023-12-04T06:38:06;22.92;;;12.05;;
61960;SDS011;47923;42.506;24.192;2023-12-04T06:40:33;21.88;;;15.35;;
61960;SDS011;47923;42.506;24.192;2023-12-04T06:43:00;18.73;;;12.25;;
61960;SDS011;47923;42.506;24.192;2023-12-04T06:45:26;21.77;;;13.65;;
61960;SDS011;47923;42.506;24.192;2023-12-04T06:47:52;26.30;;;14.18;;
61960;SDS011;47923;42.506;24.192;2023-12-04T06:50:19;33.13;;;23.27;;
61960;SDS011;47923;42.506;24.192;2023-12-04T06:52:45;50.20;;;34.78;;
61960;SDS011;47923;42.506;24.192;2023-12-04T06:55:11;26.83;;;15.85;;
61960;SDS011;47923;42.506;24.192;2023-12-04T06:57:40;22.15;;;14.52;;
61960;SDS011;47923;42.506;24.192;2023-12-04T07:00:06;25.33;;;12.00;;
61960;SDS011;47923;42.506;24.192;2023-12-04T07:02:33;23.88;;;14.38;;
61960;SDS011;47923;42.506;24.192;2023-12-04T07:04:58;23.52;;;14.93;;
61960;SDS011;47923;42.506;24.192;2023-12-04T07:07:24;29.40;;;14.77;;
61960;SDS011;47923;42.506;24.192;2023-12-04T07:09:50;23.70;;;13.45;;
61960;SDS011;47923;42.506;24.192;2023-12-04T07:12:16;22.42;;;13.13;;
61960;SDS011;47923;42.506;24.192;2023-12-04T07:14:41;22.88;;;13.15;;
61960;SDS011;47923;42.506;24.192;2023-12-04T07:17:07;20.58;;;13.00;;
61960;SDS011;47923;42.506;24.192;2023-12-04T07:19:32;21.05;;;12.88;;
61960;SDS011;47923;42.506;24.192;2023-12-04T07:21:58;21.95;;;12.73;;
61960;SDS011;47923;42.506;24.192;2023-12-04T07:24:23;24.13;;;13.00;;
61960;SDS011;47923;42.506;24.192;2023-12-04T07:26:49;31.30;;;15.13;;
61960;SDS011;47923;42.506;24.192;2023-12-04T07:29:15;32.63;;;15.40;;
61960;SDS011;47923;42.506;24.192;2023-12-04T07:31:41;24.88;;;16.45;;
61960;SDS011;47923;42.506;24.192;2023-12-04T07:34:07;27.77;;;16.20;;
61960;SDS011;47923;42.506;24.192;2023-12-04T07:36:32;31.80;;;16.20;;
61960;SDS011;47923;42.506;24.192;2023-12-04T07:38:58;28.45;;;18.30;;
61960;SDS011;47923;42.506;24.192;2023-12-04T07:41:23;32.83;;;18.95;;
61960;SDS011;47923;42.506;24.192;2023-12-04T07:43:49;28.88;;;19.20;;
61960;SDS011;47923;42.506;24.192;2023-12-04T07:46:14;31.88;;;21.05;;
61960;SDS011;47923;42.506;24.192;2023-12-04T07:48:40;27.08;;;18.15;;
61960;SDS011;47923;42.506;24.192;2023-12-04T07:51:07;29.30;;;19.25;;
61960;SDS011;47923;42.506;24.192;2023-12-04T07:53:34;26.02;;;16.42;;
61960;SDS011;47923;42.506;24.192;2023-12-04T07:56:03;24.85;;;14.88;;
61960;SDS011;47923;42.506;24.192;2023-12-04T07:58:29;22.65;;;14.70;;
61960;SDS011;47923;42.506;24.192;2023-12-04T08:00:55;22.90;;;14.55;;
61960;SDS011;47923;42.506;24.192;2023-12-04T08:03:21;22.70;;;14.38;;
61960;SDS011;47923;42.506;24.192;2023-12-04T08:05:47;28.65;;;15.18;;
61960;SDS011;47923;42.506;24.192;2023-12-04T08:08:12;23.60;;;13.20;;
61960;SDS011;47923;42.506;24.192;2023-12-04T08:10:37;18.20;;;11.00;;
61960;SDS011;47923;42.506;24.192;2023-12-04T08:13:03;21.23;;;12.93;;
61960;SDS011;47923;42.506;24.192;2023-12-04T08:15:28;18.38;;;11.68;;
61960;SDS011;47923;42.506;24.192;2023-12-04T08:17:54;22.10;;;11.52;;
61960;SDS011;47923;42.506;24.192;2023-12-04T08:20:20;19.48;;;11.07;;
61960;SDS011;47923;42.506;24.192;2023-12-04T08:22:47;41.05;;;22.35;;
61960;SDS011;47923;42.506;24.192;2023-12-04T08:25:13;24.73;;;12.95;;
61960;SDS011;47923;42.506;24.192;2023-12-04T08:27:38;29.35;;;15.40;;
61960;SDS011;47923;42.506;24.192;2023-12-04T08:30:04;28.25;;;16.05;;
61960;SDS011;47923;42.506;24.192;2023-12-04T08:32:30;25.42;;;13.45;;
61960;SDS011;47923;42.506;24.192;2023-12-04T08:34:56;43.95;;;24.38;;
61960;SDS011;47923;42.506;24.192;2023-12-04T08:37:21;39.92;;;21.52;;
61960;SDS011;47923;42.506;24.192;2023-12-04T08:39:47;20.17;;;13.10;;
61960;SDS011;47923;42.506;24.192;2023-12-04T08:42:12;54.40;;;34.85;;
61960;SDS011;47923;42.506;24.192;2023-12-04T08:44:38;31.80;;;20.52;;
61960;SDS011;47923;42.506;24.192;2023-12-04T08:47:04;41.33;;;26.77;;
61960;SDS011;47923;42.506;24.192;2023-12-04T08:49:30;23.90;;;13.88;;
61960;SDS011;47923;42.506;24.192;2023-12-04T08:51:56;31.95;;;21.05;;
61960;SDS011;47923;42.506;24.192;2023-12-04T08:54:21;23.88;;;13.15;;
61960;SDS011;47923;42.506;24.192;2023-12-04T08:56:47;33.33;;;19.40;;
61960;SDS011;47923;42.506;24.192;2023-12-04T08:59:12;39.42;;;25.88;;
61960;SDS011;47923;42.506;24.192;2023-12-04T09:01:38;31.70;;;19.42;;
61960;SDS011;47923;42.506;24.192;2023-12-04T09:04:04;35.78;;;17.85;;
61960;SDS011;47923;42.506;24.192;2023-12-04T09:06:29;19.25;;;11.75;;
61960;SDS011;47923;42.506;24.192;2023-12-04T09:08:55;20.33;;;10.70;;
61960;SDS011;47923;42.506;24.192;2023-12-04T09:11:20;23.20;;;12.00;;
61960;SDS011;47923;42.506;24.192;2023-12-04T09:13:46;20.45;;;10.48;;
61960;SDS011;47923;42.506;24.192;2023-12-04T09:16:11;16.67;;;10.20;;
61960;SDS011;47923;42.506;24.192;2023-12-04T09:18:37;22.27;;;10.57;;
61960;SDS011;47923;42.506;24.192;2023-12-04T09:21:02;24.13;;;11.15;;
61960;SDS011;47923;42.506;24.192;2023-12-04T09:23:29;16.75;;;9.90;;
61960;SDS011;47923;42.506;24.192;2023-12-04T09:25:55;17.25;;;10.45;;
61960;SDS011;47923;42.506;24.192;2023-12-04T09:28:21;18.20;;;10.98;;
61960;SDS011;47923;42.506;24.192;2023-12-04T09:30:46;17.80;;;10.57;;
61960;SDS011;47923;42.506;24.192;2023-12-04T09:33:11;16.95;;;11.77;;
61960;SDS011;47923;42.506;24.192;2023-12-04T09:35:37;19.40;;;11.23;;
61960;SDS011;47923;42.506;24.192;2023-12-04T09:38:02;17.63;;;9.85;;
61960;SDS011;47923;42.506;24.192;2023-12-04T09:40:28;19.58;;;10.45;;
61960;SDS011;47923;42.506;24.192;2023-12-04T09:42:53;21.60;;;11.80;;
61960;SDS011;47923;42.506;24.192;2023-12-04T09:45:19;18.63;;;11.57;;
61960;SDS011;47923;42.506;24.192;2023-12-04T09:47:46;17.85;;;10.30;;
61960;SDS011;47923;42.506;24.192;2023-12-04T09:50:14;21.33;;;10.80;;
61960;SDS011;47923;42.506;24.192;2023-12-04T09:52:41;12.75;;;8.52;;
61960;SDS011;47923;42.506;24.192;2023-12-04T09:55:07;13.73;;;8.32;;
61960;SDS011;47923;42.506;24.192;2023-12-04T09:57:33;14.85;;;10.05;;
61960;SDS011;47923;42.506;24.192;2023-12-04T10:00:00;22.40;;;9.63;;
61960;SDS011;47923;42.506;24.192;2023-12-04T10:02:27;28.35;;;16.98;;
61960;SDS011;47923;42.506;24.192;2023-12-04T10:04:53;14.52;;;9.45;;
61960;SDS011;47923;42.506;24.192;2023-12-04T10:07:19;15.02;;;9.25;;
61960;SDS011;47923;42.506;24.192;2023-12-04T10:09:44;15.10;;;8.90;;
61960;SDS011;47923;42.506;24.192;2023-12-04T10:12:09;12.55;;;8.85;;
61960;SDS011;47923;42.506;24.192;2023-12-04T10:14:36;13.05;;;7.68;;
61960;SDS011;47923;42.506;24.192;2023-12-04T10:17:13;12.60;;;7.80;;
61960;SDS011;47923;42.506;24.192;2023-12-04T10:19:40;10.90;;;7.10;;
61960;SDS011;47923;42.506;24.192;2023-12-04T10:22:07;13.32;;;7.90;;
61960;SDS011;47923;42.506;24.192;2023-12-04T10:24:37;15.43;;;8.13;;
61960;SDS011;47923;42.506;24.192;2023-12-04T10:27:09;14.70;;;8.52;;
61960;SDS011;47923;42.506;24.192;2023-12-04T10:29:49;16.02;;;7.28;;
61960;SDS011;47923;42.506;24.192;2023-12-04T10:32:20;14.27;;;7.93;;
61960;SDS011;47923;42.506;24.192;2023-12-04T10:34:49;16.42;;;9.30;;
61960;SDS011;47923;42.506;24.192;2023-12-04T10:37:15;13.75;;;8.63;;
61960;SDS011;47923;42.506;24.192;2023-12-04T10:39:45;11.82;;;7.90;;
61960;SDS011;47923;42.506;24.192;2023-12-04T10:44:50;13.93;;;7.20;;
61960;SDS011;47923;42.506;24.192;2023-12-04T10:47:16;14.23;;;7.93;;
61960;SDS011;47923;42.506;24.192;2023-12-04T10:49:41;12.23;;;7.25;;
61960;SDS011;47923;42.506;24.192;2023-12-04T10:52:09;16.30;;;8.45;;
61960;SDS011;47923;42.506;24.192;2023-12-04T10:54:34;13.38;;;7.88;;
61960;SDS011;47923;42.506;24.192;2023-12-04T10:57:01;13.10;;;8.48;;
61960;SDS011;47923;42.506;24.192;2023-12-04T10:59:28;13.00;;;8.57;;
61960;SDS011;47923;42.506;24.192;2023-12-04T11:02:01;17.52;;;11.15;;
61960;SDS011;47923;42.506;24.192;2023-12-04T11:04:31;17.55;;;10.00;;
61960;SDS011;47923;42.506;24.192;2023-12-04T11:06:59;12.90;;;8.00;;
61960;SDS011;47923;42.506;24.192;2023-12-04T11:09:27;14.45;;;8.38;;
61960;SDS011;47923;42.506;24.192;2023-12-04T11:11:56;14.02;;;7.78;;
61960;SDS011;47923;42.506;24.192;2023-12-04T11:14:25;12.57;;;7.25;;
61960;SDS011;47923;42.506;24.192;2023-12-04T11:16:57;14.00;;;9.00;;
61960;SDS011;47923;42.506;24.192;2023-12-04T11:19:34;12.35;;;7.78;;
61960;SDS011;47923;42.506;24.192;2023-12-04T11:22:08;16.83;;;9.10;;
61960;SDS011;47923;42.506;24.192;2023-12-04T11:24:35;14.75;;;8.32;;
61960;SDS011;47923;42.506;24.192;2023-12-04T11:27:01;12.60;;;8.02;;
61960;SDS011;47923;42.506;24.192;2023-12-04T11:29:28;12.90;;;7.18;;
61960;SDS011;47923;42.506;24.192;2023-12-04T11:31:55;14.55;;;7.68;;
61960;SDS011;47923;42.506;24.192;2023-12-04T11:34:20;12.77;;;7.28;;
61960;SDS011;47923;42.506;24.192;2023-12-04T11:36:46;13.82;;;7.45;;
61960;SDS011;47923;42.506;24.192;2023-12-04T11:39:12;11.88;;;6.88;;
61960;SDS011;47923;42.506;24.192;2023-12-04T11:41:37;14.88;;;8.77;;
61960;SDS011;47923;42.506;24.192;2023-12-04T11:44:09;17.35;;;10.30;;
61960;SDS011;47923;42.506;24.192;2023-12-04T11:46:38;20.10;;;13.33;;
61960;SDS011;47923;42.506;24.192;2023-12-04T11:51:53;13.88;;;8.02;;
61960;SDS011;47923;42.506;24.192;2023-12-04T11:54:19;12.70;;;7.28;;
61960;SDS011;47923;42.506;24.192;2023-12-04T11:59:37;15.02;;;7.80;;
61960;SDS011;47923;42.506;24.192;2023-12-04T12:02:04;13.63;;;8.52;;
61960;SDS011;47923;42.506;24.192;2023-12-04T12:04:33;12.55;;;7.72;;
61960;SDS011;47923;42.506;24.192;2023-12-04T12:06:58;13.88;;;9.48;;
61960;SDS011;47923;42.506;24.192;2023-12-04T12:09:27;11.82;;;6.95;;
61960;SDS011;47923;42.506;24.192;2023-12-04T12:11:53;17.45;;;10.40;;
61960;SDS011;47923;42.506;24.192;2023-12-04T12:14:20;14.40;;;8.95;;
61960;SDS011;47923;42.506;24.192;2023-12-04T12:16:46;14.57;;;8.85;;
61960;SDS011;47923;42.506;24.192;2023-12-04T12:19:12;12.57;;;7.97;;
61960;SDS011;47923;42.506;24.192;2023-12-04T12:21:37;17.08;;;8.60;;
61960;SDS011;47923;42.506;24.192;2023-12-04T12:24:05;14.00;;;7.50;;
61960;SDS011;47923;42.506;24.192;2023-12-04T12:26:31;12.30;;;7.28;;
61960;SDS011;47923;42.506;24.192;2023-12-04T12:28:57;12.80;;;7.35;;
61960;SDS011;47923;42.506;24.192;2023-12-04T12:31:22;12.93;;;7.15;;
61960;SDS011;47923;42.506;24.192;2023-12-04T12:33:47;11.82;;;7.03;;
61960;SDS011;47923;42.506;24.192;2023-12-04T12:36:13;13.10;;;7.05;;
61960;SDS011;47923;42.506;24.192;2023-12-04T12:38:41;11.50;;;7.07;;
61960;SDS011;47923;42.506;24.192;2023-12-04T12:41:07;14.43;;;7.68;;
61960;SDS011;47923;42.506;24.192;2023-12-04T12:43:37;16.13;;;7.72;;
61960;SDS011;47923;42.506;24.192;2023-12-04T12:46:02;13.27;;;7.22;;
61960;SDS011;47923;42.506;24.192;2023-12-04T12:48:30;14.40;;;7.22;;
61960;SDS011;47923;42.506;24.192;2023-12-04T12:50:57;13.38;;;7.72;;
61960;SDS011;47923;42.506;24.192;2023-12-04T12:53:23;12.30;;;6.82;;
61960;SDS011;47923;42.506;24.192;2023-12-04T12:55:48;11.25;;;6.78;;
61960;SDS011;47923;42.506;24.192;2023-12-04T12:58:14;11.30;;;6.60;;
61960;SDS011;47923;42.506;24.192;2023-12-04T13:00:45;14.82;;;6.50;;
61960;SDS011;47923;42.506;24.192;2023-12-04T13:03:15;12.65;;;6.72;;
61960;SDS011;47923;42.506;24.192;2023-12-04T13:05:42;11.38;;;6.22;;
61960;SDS011;47923;42.506;24.192;2023-12-04T13:08:08;11.27;;;6.18;;
61960;SDS011;47923;42.506;24.192;2023-12-04T13:10:33;10.88;;;6.22;;
61960;SDS011;47923;42.506;24.192;2023-12-04T13:12:59;12.52;;;7.38;;
61960;SDS011;47923;42.506;24.192;2023-12-04T13:15:25;7.70;;;4.25;;
61960;SDS011;47923;42.506;24.192;2023-12-04T13:17:51;9.32;;;4.68;;
61960;SDS011;47923;42.506;24.192;2023-12-04T13:20:16;7.13;;;3.75;;
61960;SDS011;47923;42.506;24.192;2023-12-04T13:22:42;7.85;;;4.22;;
61960;SDS011;47923;42.506;24.192;2023-12-04T13:25:08;10.10;;;5.13;;
61960;SDS011;47923;42.506;24.192;2023-12-04T13:27:35;11.35;;;5.75;;
61960;SDS011;47923;42.506;24.192;2023-12-04T13:30:07;9.93;;;5.70;;
61960;SDS011;47923;42.506;24.192;2023-12-04T13:32:33;7.75;;;3.80;;
61960;SDS011;47923;42.506;24.192;2023-12-04T13:35:00;7.93;;;3.97;;
61960;SDS011;47923;42.506;24.192;2023-12-04T13:37:26;13.35;;;6.00;;
61960;SDS011;47923;42.506;24.192;2023-12-04T13:39:53;10.70;;;5.82;;
61960;SDS011;47923;42.506;24.192;2023-12-04T13:42:25;11.05;;;6.22;;
61960;SDS011;47923;42.506;24.192;2023-12-04T13:45:09;8.57;;;5.20;;
61960;SDS011;47923;42.506;24.192;2023-12-04T13:47:35;11.90;;;6.40;;
61960;SDS011;47923;42.506;24.192;2023-12-04T13:50:01;7.90;;;4.22;;
61960;SDS011;47923;42.506;24.192;2023-12-04T13:52:27;11.98;;;6.55;;
61960;SDS011;47923;42.506;24.192;2023-12-04T13:54:57;12.07;;;5.97;;
61960;SDS011;47923;42.506;24.192;2023-12-04T13:57:23;10.15;;;5.38;;
61960;SDS011;47923;42.506;24.192;2023-12-04T14:00:12;15.25;;;9.85;;
61960;SDS011;47923;42.506;24.192;2023-12-04T14:02:37;13.98;;;7.18;;
61960;SDS011;47923;42.506;24.192;2023-12-04T14:05:03;13.07;;;7.13;;
61960;SDS011;47923;42.506;24.192;2023-12-04T14:07:28;11.57;;;7.13;;
61960;SDS011;47923;42.506;24.192;2023-12-04T14:09:54;13.02;;;7.00;;
61960;SDS011;47923;42.506;24.192;2023-12-04T14:12:19;14.57;;;8.13;;
61960;SDS011;47923;42.506;24.192;2023-12-04T14:14:45;14.75;;;8.65;;
61960;SDS011;47923;42.506;24.192;2023-12-04T14:17:10;15.02;;;9.60;;